sensor_id;sensor_type;location;lat;lon;timestamp;pressure;altitude;pressure_sealevel;temperature;humidity
4346;BME280;2186;49.866;7.986;2023-09-19T00:00:31;99658.16;;;18.97;100.00
4346;BME280;2186;49.866;7.986;2023-09-19T00:02:59;99657.31;;;18.83;100.00
4346;BME280;2186;49.866;7.986;2023-09-19T00:05:27;99659.63;;;19.01;100.00
4346;BME280;2186;49.866;7.986;2023-09-19T00:07:56;99660.78;;;18.85;100.00
4346;BME280;2186;49.866;7.986;2023-09-19T00:10:26;99661.41;;;18.89;100.00
4346;BME280;2186;49.866;7.986;2023-09-19T00:12:54;99672.59;;;18.96;100.00
4346;BME280;2186;49.866;7.986;2023-09-19T00:15:25;99670.44;;;18.88;100.00
4346;BME280;2186;49.866;7.986;2023-09-19T00:17:55;99660.78;;;18.73;100.00
4346;BME280;2186;49.866;7.986;2023-09-19T00:20:22;99671.03;;;18.68;100.00
4346;BME280;2186;49.866;7.986;2023-09-19T00:22:50;99670.81;;;18.58;100.00
4346;BME280;2186;49.866;7.986;2023-09-19T00:25:20;99669.53;;;18.63;100.00
4346;BME280;2186;49.866;7.986;2023-09-19T00:27:47;99668.47;;;18.41;100.00
4346;BME280;2186;49.866;7.986;2023-09-19T00:30:16;99672.88;;;18.54;100.00
4346;BME280;2186;49.866;7.986;2023-09-19T00:32:47;99671.44;;;18.49;100.00
4346;BME280;2186;49.866;7.986;2023-09-19T00:35:14;99666.84;;;18.51;100.00
4346;BME280;2186;49.866;7.986;2023-09-19T00:37:42;99672.88;;;18.54;100.00
4346;BME280;2186;49.866;7.986;2023-09-19T00:40:10;99672.88;;;18.54;100.00
4346;BME280;2186;49.866;7.986;2023-09-19T00:42:39;99662.97;;;18.42;100.00
4346;BME280;2186;49.866;7.986;2023-09-19T00:45:09;99677.06;;;18.46;100.00
4346;BME280;2186;49.866;7.986;2023-09-19T00:47:39;99679.00;;;18.56;100.00
4346;BME280;2186;49.866;7.986;2023-09-19T00:50:08;99690.22;;;18.50;100.00
4346;BME280;2186;49.866;7.986;2023-09-19T00:52:39;99689.97;;;18.53;100.00
4346;BME280;2186;49.866;7.986;2023-09-19T00:55:07;99693.53;;;18.79;100.00
4346;BME280;2186;49.866;7.986;2023-09-19T00:57:36;99698.59;;;18.71;100.00
4346;BME280;2186;49.866;7.986;2023-09-19T01:00:08;99700.94;;;18.63;100.00
4346;BME280;2186;49.866;7.986;2023-09-19T01:02:38;99700.31;;;18.59;100.00
4346;BME280;2186;49.866;7.986;2023-09-19T01:05:05;99709.91;;;18.63;100.00
4346;BME280;2186;49.866;7.986;2023-09-19T01:07:32;99715.94;;;18.54;100.00
4346;BME280;2186;49.866;7.986;2023-09-19T01:10:03;99709.25;;;18.47;100.00
4346;BME280;2186;49.866;7.986;2023-09-19T01:26:58;99753.88;;;17.99;100.00
4346;BME280;2186;49.866;7.986;2023-09-19T01:32:04;99751.91;;;17.88;100.00
4346;BME280;2186;49.866;7.986;2023-09-19T01:37:19;99759.59;;;17.80;100.00
4346;BME280;2186;49.866;7.986;2023-09-19T01:39:49;99759.31;;;17.85;100.00
4346;BME280;2186;49.866;7.986;2023-09-19T01:48:19;99759.50;;;17.55;100.00
4346;BME280;2186;49.866;7.986;2023-09-19T01:50:59;99773.06;;;17.39;100.00
4346;BME280;2186;49.866;7.986;2023-09-19T01:56:27;99776.03;;;17.34;100.00
4346;BME280;2186;49.866;7.986;2023-09-19T01:58:59;99780.97;;;17.28;100.00
4346;BME280;2186;49.866;7.986;2023-09-19T02:01:31;99772.22;;;17.24;100.00
4346;BME280;2186;49.866;7.986;2023-09-19T02:03:58;99784.59;;;17.27;100.00
4346;BME280;2186;49.866;7.986;2023-09-19T02:06:24;99784.88;;;17.22;100.00
4346;BME280;2186;49.866;7.986;2023-09-19T02:08:51;99780.94;;;17.42;100.00
4346;BME280;2186;49.866;7.986;2023-09-19T02:11:17;99787.00;;;17.31;100.00
4346;BME280;2186;49.866;7.986;2023-09-19T02:13:44;99781.63;;;17.31;100.00
4346;BME280;2186;49.866;7.986;2023-09-19T02:16:11;99790.09;;;17.52;100.00
4346;BME280;2186;49.866;7.986;2023-09-19T02:18:39;99791.75;;;17.69;100.00
4346;BME280;2186;49.866;7.986;2023-09-19T02:21:06;99792.28;;;17.74;100.00
4346;BME280;2186;49.866;7.986;2023-09-19T02:23:38;99791.13;;;17.78;100.00
4346;BME280;2186;49.866;7.986;2023-09-19T02:26:05;99788.78;;;17.86;100.00
4346;BME280;2186;49.866;7.986;2023-09-19T02:28:32;99789.41;;;17.63;100.00
4346;BME280;2186;49.866;7.986;2023-09-19T02:30:59;99795.09;;;17.72;100.00
4346;BME280;2186;49.866;7.986;2023-09-19T02:33:25;99804.81;;;17.88;100.00
4346;BME280;2186;49.866;7.986;2023-09-19T02:35:56;99797.41;;;17.91;100.00
4346;BME280;2186;49.866;7.986;2023-09-19T02:38:25;99792.66;;;17.82;100.00
4346;BME280;2186;49.866;7.986;2023-09-19T02:40:52;99804.81;;;17.88;100.00
4346;BME280;2186;49.866;7.986;2023-09-19T02:43:19;99807.91;;;17.82;100.00
4346;BME280;2186;49.866;7.986;2023-09-19T02:45:46;99798.53;;;17.74;100.00
4346;BME280;2186;49.866;7.986;2023-09-19T02:48:23;99800.31;;;17.47;100.00
4346;BME280;2186;49.866;7.986;2023-09-19T02:50:51;99804.41;;;17.53;100.00
4346;BME280;2186;49.866;7.986;2023-09-19T02:53:18;99802.06;;;17.34;100.00
4346;BME280;2186;49.866;7.986;2023-09-19T02:55:46;99797.09;;;17.28;100.00
4346;BME280;2186;49.866;7.986;2023-09-19T02:58:13;99803.91;;;17.19;100.00
4346;BME280;2186;49.866;7.986;2023-09-19T03:00:41;99801.69;;;16.97;100.00
4346;BME280;2186;49.866;7.986;2023-09-19T03:03:08;99802.75;;;16.95;100.00
4346;BME280;2186;49.866;7.986;2023-09-19T03:05:35;99810.16;;;16.91;100.00
4346;BME280;2186;49.866;7.986;2023-09-19T03:08:01;99810.13;;;16.77;100.00
4346;BME280;2186;49.866;7.986;2023-09-19T03:10:28;99812.78;;;16.63;100.00
4346;BME280;2186;49.866;7.986;2023-09-19T03:12:57;99816.78;;;16.55;100.00
4346;BME280;2186;49.866;7.986;2023-09-19T03:15:23;99818.97;;;16.49;100.00
4346;BME280;2186;49.866;7.986;2023-09-19T03:17:50;99828.34;;;16.42;100.00
4346;BME280;2186;49.866;7.986;2023-09-19T03:20:18;99844.44;;;16.42;100.00
4346;BME280;2186;49.866;7.986;2023-09-19T03:22:45;99839.53;;;16.34;100.00
4346;BME280;2186;49.866;7.986;2023-09-19T03:25:12;99843.28;;;16.32;100.00
4346;BME280;2186;49.866;7.986;2023-09-19T03:27:40;99847.06;;;16.27;100.00
4346;BME280;2186;49.866;7.986;2023-09-19T03:30:07;99847.63;;;16.18;100.00
4346;BME280;2186;49.866;7.986;2023-09-19T03:32:48;99846.94;;;16.15;100.00
4346;BME280;2186;49.866;7.986;2023-09-19T03:35:17;99843.50;;;15.97;100.00
4346;BME280;2186;49.866;7.986;2023-09-19T03:37:44;99847.06;;;15.97;100.00
4346;BME280;2186;49.866;7.986;2023-09-19T03:40:11;99846.19;;;15.97;100.00
4346;BME280;2186;49.866;7.986;2023-09-19T03:42:41;99847.66;;;15.87;100.00
4346;BME280;2186;49.866;7.986;2023-09-19T03:45:08;99851.50;;;15.83;100.00
4346;BME280;2186;49.866;7.986;2023-09-19T03:47:39;99851.84;;;15.77;100.00
4346;BME280;2186;49.866;7.986;2023-09-19T03:50:07;99847.53;;;15.90;100.00
4346;BME280;2186;49.866;7.986;2023-09-19T03:52:34;99850.09;;;15.91;100.00
4346;BME280;2186;49.866;7.986;2023-09-19T03:55:01;99852.53;;;15.80;100.00
4346;BME280;2186;49.866;7.986;2023-09-19T03:57:28;99857.97;;;15.94;100.00
4346;BME280;2186;49.866;7.986;2023-09-19T03:59:55;99853.56;;;15.93;100.00
4346;BME280;2186;49.866;7.986;2023-09-19T04:02:23;99854.94;;;15.85;100.00
4346;BME280;2186;49.866;7.986;2023-09-19T04:04:51;99846.28;;;15.95;100.00
4346;BME280;2186;49.866;7.986;2023-09-19T04:07:18;99855.13;;;15.82;100.00
4346;BME280;2186;49.866;7.986;2023-09-19T04:09:46;99855.56;;;15.90;100.00
4346;BME280;2186;49.866;7.986;2023-09-19T04:12:12;99868.34;;;15.85;100.00
4346;BME280;2186;49.866;7.986;2023-09-19T04:14:39;99869.88;;;15.89;100.00
4346;BME280;2186;49.866;7.986;2023-09-19T04:17:05;99874.31;;;16.36;100.00
4346;BME280;2186;49.866;7.986;2023-09-19T04:19:36;99879.41;;;15.94;100.00
4346;BME280;2186;49.866;7.986;2023-09-19T04:22:03;99876.72;;;15.94;100.00
4346;BME280;2186;49.866;7.986;2023-09-19T04:24:30;99875.69;;;15.97;100.00
4346;BME280;2186;49.866;7.986;2023-09-19T04:26:58;99878.38;;;15.81;100.00
4346;BME280;2186;49.866;7.986;2023-09-19T04:29:25;99875.59;;;15.83;100.00
4346;BME280;2186;49.866;7.986;2023-09-19T04:31:56;99877.59;;;15.79;100.00
4346;BME280;2186;49.866;7.986;2023-09-19T04:34:23;99872.22;;;15.95;100.00
4346;BME280;2186;49.866;7.986;2023-09-19T04:36:50;99869.97;;;15.87;100.00
4346;BME280;2186;49.866;7.986;2023-09-19T04:39:17;99880.47;;;15.92;100.00
4346;BME280;2186;49.866;7.986;2023-09-19T04:41:44;99876.09;;;15.89;100.00
4346;BME280;2186;49.866;7.986;2023-09-19T04:44:11;99880.00;;;15.84;100.00
4346;BME280;2186;49.866;7.986;2023-09-19T04:46:38;99878.97;;;15.70;100.00
4346;BME280;2186;49.866;7.986;2023-09-19T04:49:04;99879.84;;;15.71;100.00
4346;BME280;2186;49.866;7.986;2023-09-19T04:51:31;99880.63;;;15.73;100.00
4346;BME280;2186;49.866;7.986;2023-09-19T04:54:01;99891.09;;;15.78;100.00
4346;BME280;2186;49.866;7.986;2023-09-19T04:56:27;99891.31;;;15.89;100.00
4346;BME280;2186;49.866;7.986;2023-09-19T04:58:55;99888.06;;;15.84;100.00
4346;BME280;2186;49.866;7.986;2023-09-19T05:01:23;99893.41;;;15.99;100.00
4346;BME280;2186;49.866;7.986;2023-09-19T05:03:49;99902.13;;;15.87;100.00
4346;BME280;2186;49.866;7.986;2023-09-19T05:06:19;99904.59;;;15.92;100.00
4346;BME280;2186;49.866;7.986;2023-09-19T05:08:48;99913.13;;;15.83;100.00
4346;BME280;2186;49.866;7.986;2023-09-19T05:11:19;99911.69;;;15.77;100.00
4346;BME280;2186;49.866;7.986;2023-09-19T05:13:49;99916.22;;;15.75;100.00
4346;BME280;2186;49.866;7.986;2023-09-19T05:16:20;99918.84;;;15.77;100.00
4346;BME280;2186;49.866;7.986;2023-09-19T05:18:46;99917.44;;;15.69;100.00
4346;BME280;2186;49.866;7.986;2023-09-19T05:21:13;99916.94;;;15.63;100.00
4346;BME280;2186;49.866;7.986;2023-09-19T05:23:39;99920.47;;;15.63;100.00
4346;BME280;2186;49.866;7.986;2023-09-19T05:26:06;99927.00;;;15.58;100.00
4346;BME280;2186;49.866;7.986;2023-09-19T05:28:32;99932.94;;;15.64;100.00
4346;BME280;2186;49.866;7.986;2023-09-19T05:31:01;99936.75;;;15.76;100.00
4346;BME280;2186;49.866;7.986;2023-09-19T05:33:30;99942.44;;;15.86;100.00
4346;BME280;2186;49.866;7.986;2023-09-19T05:35:58;99944.06;;;15.88;100.00
4346;BME280;2186;49.866;7.986;2023-09-19T05:38:24;99947.38;;;15.93;100.00
4346;BME280;2186;49.866;7.986;2023-09-19T05:40:53;99947.81;;;16.02;100.00
4346;BME280;2186;49.866;7.986;2023-09-19T05:43:20;99950.91;;;16.10;100.00
4346;BME280;2186;49.866;7.986;2023-09-19T05:45:47;99952.75;;;16.09;100.00
4346;BME280;2186;49.866;7.986;2023-09-19T05:48:14;99952.38;;;16.15;100.00
4346;BME280;2186;49.866;7.986;2023-09-19T05:50:43;99961.63;;;16.25;100.00
4346;BME280;2186;49.866;7.986;2023-09-19T05:53:11;99966.78;;;16.44;100.00
4346;BME280;2186;49.866;7.986;2023-09-19T05:55:39;99965.50;;;16.51;100.00
4346;BME280;2186;49.866;7.986;2023-09-19T05:58:06;99966.09;;;16.56;100.00
4346;BME280;2186;49.866;7.986;2023-09-19T06:00:33;99963.34;;;16.74;100.00
4346;BME280;2186;49.866;7.986;2023-09-19T06:03:02;99965.97;;;16.90;100.00
4346;BME280;2186;49.866;7.986;2023-09-19T06:05:29;99954.94;;;16.94;100.00
4346;BME280;2186;49.866;7.986;2023-09-19T06:07:58;99963.50;;;17.01;100.00
4346;BME280;2186;49.866;7.986;2023-09-19T06:10:27;99960.06;;;17.13;100.00
4346;BME280;2186;49.866;7.986;2023-09-19T06:12:54;99965.72;;;17.23;100.00
4346;BME280;2186;49.866;7.986;2023-09-19T06:15:24;99967.00;;;17.31;100.00
4346;BME280;2186;49.866;7.986;2023-09-19T06:17:53;99967.78;;;17.33;100.00
4346;BME280;2186;49.866;7.986;2023-09-19T06:20:24;99959.91;;;17.44;100.00
4346;BME280;2186;49.866;7.986;2023-09-19T06:22:51;99963.38;;;17.46;100.00
4346;BME280;2186;49.866;7.986;2023-09-19T06:25:18;99969.81;;;17.58;100.00
4346;BME280;2186;49.866;7.986;2023-09-19T06:27:47;99977.38;;;17.66;99.66
4346;BME280;2186;49.866;7.986;2023-09-19T06:30:14;99975.22;;;17.72;100.00
4346;BME280;2186;49.866;7.986;2023-09-19T06:32:41;99980.88;;;17.96;98.46
4346;BME280;2186;49.866;7.986;2023-09-19T06:35:12;99986.22;;;18.11;97.86
4346;BME280;2186;49.866;7.986;2023-09-19T06:37:39;99989.69;;;17.98;97.37
4346;BME280;2186;49.866;7.986;2023-09-19T06:40:09;99991.81;;;17.79;98.09
4346;BME280;2186;49.866;7.986;2023-09-19T06:42:45;99994.22;;;17.69;98.99
4346;BME280;2186;49.866;7.986;2023-09-19T06:45:15;99994.84;;;18.16;98.35
4346;BME280;2186;49.866;7.986;2023-09-19T06:47:45;99991.88;;;17.92;98.09
4346;BME280;2186;49.866;7.986;2023-09-19T06:50:20;99991.22;;;18.02;97.34
4346;BME280;2186;49.866;7.986;2023-09-19T06:52:53;100000.81;;;17.92;97.89
4346;BME280;2186;49.866;7.986;2023-09-19T06:55:22;100002.13;;;18.28;96.58
4346;BME280;2186;49.866;7.986;2023-09-19T06:57:52;100011.19;;;18.13;96.83
4346;BME280;2186;49.866;7.986;2023-09-19T07:00:20;100012.59;;;18.18;97.94
4346;BME280;2186;49.866;7.986;2023-09-19T07:05:23;100022.69;;;18.29;97.19
4346;BME280;2186;49.866;7.986;2023-09-19T07:07:50;100030.28;;;18.37;97.31
4346;BME280;2186;49.866;7.986;2023-09-19T07:10:16;100031.22;;;18.62;96.74
4346;BME280;2186;49.866;7.986;2023-09-19T07:12:44;100027.44;;;18.67;96.49
4346;BME280;2186;49.866;7.986;2023-09-19T07:15:11;100038.25;;;18.79;96.08
4346;BME280;2186;49.866;7.986;2023-09-19T07:17:37;100044.44;;;18.67;95.87
4346;BME280;2186;49.866;7.986;2023-09-19T07:20:04;100047.91;;;18.55;94.53
4346;BME280;2186;49.866;7.986;2023-09-19T07:22:34;100047.16;;;18.53;94.27
4346;BME280;2186;49.866;7.986;2023-09-19T07:25:01;100053.13;;;18.85;94.26
4346;BME280;2186;49.866;7.986;2023-09-19T07:27:27;100054.53;;;18.78;92.21
4346;BME280;2186;49.866;7.986;2023-09-19T07:29:54;100060.50;;;18.96;93.02
4346;BME280;2186;49.866;7.986;2023-09-19T07:32:20;100064.56;;;18.88;92.39
4346;BME280;2186;49.866;7.986;2023-09-19T07:34:47;100065.38;;;18.62;92.26
4346;BME280;2186;49.866;7.986;2023-09-19T07:37:13;100070.75;;;18.76;92.62
4346;BME280;2186;49.866;7.986;2023-09-19T07:39:42;100069.03;;;18.61;90.91
4346;BME280;2186;49.866;7.986;2023-09-19T07:42:09;100075.97;;;18.79;90.46
4346;BME280;2186;49.866;7.986;2023-09-19T07:44:37;100085.00;;;18.78;90.45
4346;BME280;2186;49.866;7.986;2023-09-19T07:47:04;100087.34;;;18.42;88.67
4346;BME280;2186;49.866;7.986;2023-09-19T07:49:30;100104.81;;;18.49;87.84
4346;BME280;2186;49.866;7.986;2023-09-19T07:51:57;100101.16;;;19.05;87.45
4346;BME280;2186;49.866;7.986;2023-09-19T07:54:25;100091.97;;;18.95;86.73
4346;BME280;2186;49.866;7.986;2023-09-19T07:56:51;100097.19;;;19.11;84.88
4346;BME280;2186;49.866;7.986;2023-09-19T07:59:18;100101.41;;;18.88;85.80
4346;BME280;2186;49.866;7.986;2023-09-19T08:01:44;100102.31;;;19.01;85.12
4346;BME280;2186;49.866;7.986;2023-09-19T08:04:11;100109.59;;;19.13;86.14
4346;BME280;2186;49.866;7.986;2023-09-19T08:06:38;100112.59;;;19.09;84.58
4346;BME280;2186;49.866;7.986;2023-09-19T08:09:05;100106.03;;;19.52;82.76
4346;BME280;2186;49.866;7.986;2023-09-19T08:11:35;100121.34;;;19.12;82.68
4346;BME280;2186;49.866;7.986;2023-09-19T08:14:01;100109.09;;;19.21;81.38
4346;BME280;2186;49.866;7.986;2023-09-19T08:16:28;100118.69;;;18.98;83.48
4346;BME280;2186;49.866;7.986;2023-09-19T08:18:55;100123.28;;;19.10;81.88
4346;BME280;2186;49.866;7.986;2023-09-19T08:21:22;100126.06;;;19.09;80.27
4346;BME280;2186;49.866;7.986;2023-09-19T08:23:50;100134.06;;;19.10;79.68
4346;BME280;2186;49.866;7.986;2023-09-19T08:26:16;100133.78;;;19.01;79.21
4346;BME280;2186;49.866;7.986;2023-09-19T08:28:43;100125.59;;;19.02;78.45
4346;BME280;2186;49.866;7.986;2023-09-19T08:31:10;100127.84;;;18.96;78.25
4346;BME280;2186;49.866;7.986;2023-09-19T08:33:37;100129.69;;;19.22;78.02
4346;BME280;2186;49.866;7.986;2023-09-19T08:36:06;100130.44;;;19.24;79.07
4346;BME280;2186;49.866;7.986;2023-09-19T08:38:34;100136.97;;;19.47;78.63
4346;BME280;2186;49.866;7.986;2023-09-19T08:41:05;100136.69;;;19.24;78.55
4346;BME280;2186;49.866;7.986;2023-09-19T08:43:34;100136.38;;;19.02;75.81
4346;BME280;2186;49.866;7.986;2023-09-19T08:46:16;100132.47;;;19.20;76.18
4346;BME280;2186;49.866;7.986;2023-09-19T08:49:08;100129.56;;;19.23;74.90
4346;BME280;2186;49.866;7.986;2023-09-19T08:51:40;100138.91;;;18.91;76.25
4346;BME280;2186;49.866;7.986;2023-09-19T08:54:07;100142.44;;;19.06;77.17
4346;BME280;2186;49.866;7.986;2023-09-19T08:56:36;100143.00;;;19.11;75.87
4346;BME280;2186;49.866;7.986;2023-09-19T08:59:06;100146.00;;;19.06;75.16
4346;BME280;2186;49.866;7.986;2023-09-19T09:01:38;100150.00;;;19.13;74.64
4346;BME280;2186;49.866;7.986;2023-09-19T09:04:09;100149.47;;;19.35;75.00
4346;BME280;2186;49.866;7.986;2023-09-19T09:06:40;100141.69;;;19.70;74.97
4346;BME280;2186;49.866;7.986;2023-09-19T09:09:09;100146.59;;;20.29;73.71
4346;BME280;2186;49.866;7.986;2023-09-19T09:11:38;100147.09;;;19.83;73.46
4346;BME280;2186;49.866;7.986;2023-09-19T09:14:06;100143.34;;;20.11;74.97
4346;BME280;2186;49.866;7.986;2023-09-19T09:16:33;100135.34;;;20.22;72.09
4346;BME280;2186;49.866;7.986;2023-09-19T09:19:01;100129.47;;;20.66;73.05
4346;BME280;2186;49.866;7.986;2023-09-19T09:21:28;100140.88;;;20.83;71.16
4346;BME280;2186;49.866;7.986;2023-09-19T09:23:54;100136.19;;;20.35;70.54
4346;BME280;2186;49.866;7.986;2023-09-19T09:26:41;100143.53;;;20.72;69.78
4346;BME280;2186;49.866;7.986;2023-09-19T09:29:08;100138.06;;;20.97;69.30
4346;BME280;2186;49.866;7.986;2023-09-19T09:31:35;100139.19;;;21.06;68.25
4346;BME280;2186;49.866;7.986;2023-09-19T09:34:02;100134.25;;;20.99;68.98
4346;BME280;2186;49.866;7.986;2023-09-19T09:36:36;100130.81;;;20.97;67.68
4346;BME280;2186;49.866;7.986;2023-09-19T09:39:03;100131.81;;;21.08;66.66
4346;BME280;2186;49.866;7.986;2023-09-19T09:41:43;100139.16;;;20.82;67.60
4346;BME280;2186;49.866;7.986;2023-09-19T09:44:14;100133.03;;;20.67;67.50
4346;BME280;2186;49.866;7.986;2023-09-19T09:46:45;100129.53;;;20.90;67.29
4346;BME280;2186;49.866;7.986;2023-09-19T09:49:25;100130.38;;;21.27;68.39
4346;BME280;2186;49.866;7.986;2023-09-19T09:52:05;100132.38;;;21.13;68.10
4346;BME280;2186;49.866;7.986;2023-09-19T09:55:02;100126.69;;;21.28;67.33
4346;BME280;2186;49.866;7.986;2023-09-19T09:57:32;100139.03;;;21.20;67.49
4346;BME280;2186;49.866;7.986;2023-09-19T10:00:00;100138.19;;;21.43;63.51
4346;BME280;2186;49.866;7.986;2023-09-19T10:02:39;100124.84;;;21.53;63.44
4346;BME280;2186;49.866;7.986;2023-09-19T10:05:13;100126.22;;;21.35;63.35
4346;BME280;2186;49.866;7.986;2023-09-19T10:07:48;100126.13;;;21.23;63.72
4346;BME280;2186;49.866;7.986;2023-09-19T10:10:33;100129.94;;;21.45;62.30
4346;BME280;2186;49.866;7.986;2023-09-19T10:13:11;100126.25;;;21.92;60.55
4346;BME280;2186;49.866;7.986;2023-09-19T10:15:47;100134.13;;;21.49;60.24
4346;BME280;2186;49.866;7.986;2023-09-19T10:18:25;100127.88;;;21.83;60.71
4346;BME280;2186;49.866;7.986;2023-09-19T10:20:52;100141.00;;;21.66;59.65
4346;BME280;2186;49.866;7.986;2023-09-19T10:23:20;100138.31;;;21.42;59.79
4346;BME280;2186;49.866;7.986;2023-09-19T10:25:51;100134.31;;;21.11;60.58
4346;BME280;2186;49.866;7.986;2023-09-19T10:28:19;100137.09;;;21.46;59.79
4346;BME280;2186;49.866;7.986;2023-09-19T10:30:52;100127.31;;;21.32;59.45
4346;BME280;2186;49.866;7.986;2023-09-19T10:33:24;100129.66;;;21.13;59.37
4346;BME280;2186;49.866;7.986;2023-09-19T10:35:53;100134.09;;;21.14;59.28
4346;BME280;2186;49.866;7.986;2023-09-19T10:38:26;100120.06;;;21.33;58.77
4346;BME280;2186;49.866;7.986;2023-09-19T10:40:56;100124.13;;;21.73;60.79
4346;BME280;2186;49.866;7.986;2023-09-19T10:43:30;100124.03;;;21.75;60.03
4346;BME280;2186;49.866;7.986;2023-09-19T10:46:05;100122.88;;;21.55;58.71
4346;BME280;2186;49.866;7.986;2023-09-19T10:48:33;100124.84;;;21.29;59.64
4346;BME280;2186;49.866;7.986;2023-09-19T10:51:11;100124.41;;;21.46;58.98
4346;BME280;2186;49.866;7.986;2023-09-19T10:53:46;100127.56;;;21.29;60.04
4346;BME280;2186;49.866;7.986;2023-09-19T10:56:31;100115.81;;;21.41;60.72
4346;BME280;2186;49.866;7.986;2023-09-19T10:59:09;100115.69;;;21.89;57.71
4346;BME280;2186;49.866;7.986;2023-09-19T11:01:56;100102.69;;;21.59;57.84
4346;BME280;2186;49.866;7.986;2023-09-19T11:04:34;100115.13;;;21.62;59.72
4346;BME280;2186;49.866;7.986;2023-09-19T11:07:12;100110.41;;;21.99;58.45
4346;BME280;2186;49.866;7.986;2023-09-19T11:09:55;100092.00;;;22.15;57.14
4346;BME280;2186;49.866;7.986;2023-09-19T11:14:59;100090.78;;;22.30;53.70
4346;BME280;2186;49.866;7.986;2023-09-19T11:17:33;100094.59;;;22.28;54.62
4346;BME280;2186;49.866;7.986;2023-09-19T11:30:45;100067.25;;;22.20;54.01
4346;BME280;2186;49.866;7.986;2023-09-19T11:33:22;100068.06;;;22.76;53.72
4346;BME280;2186;49.866;7.986;2023-09-19T11:35:59;100070.22;;;22.39;52.69
4346;BME280;2186;49.866;7.986;2023-09-19T11:46:14;100069.47;;;22.48;51.82
4346;BME280;2186;49.866;7.986;2023-09-19T11:48:43;100069.22;;;22.51;51.65
4346;BME280;2186;49.866;7.986;2023-09-19T11:51:15;100066.00;;;22.57;51.51
4346;BME280;2186;49.866;7.986;2023-09-19T11:53:46;100072.53;;;22.55;51.39
4346;BME280;2186;49.866;7.986;2023-09-19T11:56:23;100068.13;;;22.42;50.66
4346;BME280;2186;49.866;7.986;2023-09-19T11:58:52;100070.34;;;22.49;49.86
4346;BME280;2186;49.866;7.986;2023-09-19T12:01:29;100068.84;;;22.56;51.72
4346;BME280;2186;49.866;7.986;2023-09-19T12:03:58;100071.06;;;22.39;51.40
4346;BME280;2186;49.866;7.986;2023-09-19T12:06:26;100067.50;;;22.50;51.47
4346;BME280;2186;49.866;7.986;2023-09-19T12:08:53;100068.72;;;22.57;52.20
4346;BME280;2186;49.866;7.986;2023-09-19T12:11:29;100065.84;;;22.70;52.41
4346;BME280;2186;49.866;7.986;2023-09-19T12:13:59;100066.72;;;22.70;51.22
4346;BME280;2186;49.866;7.986;2023-09-19T12:16:30;100069.47;;;22.48;50.85
4346;BME280;2186;49.866;7.986;2023-09-19T12:18:57;100067.25;;;22.53;52.73
4346;BME280;2186;49.866;7.986;2023-09-19T12:21:31;100055.75;;;22.83;51.68
4346;BME280;2186;49.866;7.986;2023-09-19T12:26:26;100064.31;;;22.99;50.63
4346;BME280;2186;49.866;7.986;2023-09-19T12:28:55;100052.16;;;22.94;51.55
4346;BME280;2186;49.866;7.986;2023-09-19T12:31:22;100050.69;;;22.90;50.40
4346;BME280;2186;49.866;7.986;2023-09-19T12:33:55;100054.44;;;23.10;49.99
4346;BME280;2186;49.866;7.986;2023-09-19T12:36:22;100052.59;;;22.99;50.25
4346;BME280;2186;49.866;7.986;2023-09-19T12:38:56;100045.00;;;22.82;51.26
4346;BME280;2186;49.866;7.986;2023-09-19T12:41:25;100046.34;;;22.87;51.20
4346;BME280;2186;49.866;7.986;2023-09-19T12:43:53;100039.47;;;22.72;51.81
4346;BME280;2186;49.866;7.986;2023-09-19T12:46:23;100033.47;;;22.68;52.09
4346;BME280;2186;49.866;7.986;2023-09-19T12:49:17;100029.06;;;22.34;51.99
4346;BME280;2186;49.866;7.986;2023-09-19T12:51:45;100028.44;;;22.53;51.10
4346;BME280;2186;49.866;7.986;2023-09-19T12:54:12;100035.06;;;22.60;51.97
4346;BME280;2186;49.866;7.986;2023-09-19T12:56:43;100031.16;;;22.64;51.26
4346;BME280;2186;49.866;7.986;2023-09-19T12:59:14;100031.72;;;22.90;51.71
4346;BME280;2186;49.866;7.986;2023-09-19T13:01:42;100027.16;;;22.79;49.94
4346;BME280;2186;49.866;7.986;2023-09-19T13:04:17;100025.31;;;22.80;49.71
4346;BME280;2186;49.866;7.986;2023-09-19T13:06:50;100033.94;;;22.85;49.54
4346;BME280;2186;49.866;7.986;2023-09-19T13:09:18;100033.81;;;23.18;49.78
4346;BME280;2186;49.866;7.986;2023-09-19T13:11:46;100034.13;;;23.04;50.21
4346;BME280;2186;49.866;7.986;2023-09-19T13:14:15;100043.34;;;23.33;49.24
4346;BME280;2186;49.866;7.986;2023-09-19T13:17:02;100041.81;;;23.20;48.48
4346;BME280;2186;49.866;7.986;2023-09-19T13:19:47;100030.25;;;23.18;48.34
4346;BME280;2186;49.866;7.986;2023-09-19T13:25:09;100021.47;;;23.14;48.25
4346;BME280;2186;49.866;7.986;2023-09-19T13:27:42;100026.59;;;23.49;48.11
4346;BME280;2186;49.866;7.986;2023-09-19T13:30:08;100026.56;;;23.60;48.96
4346;BME280;2186;49.866;7.986;2023-09-19T13:32:35;100022.03;;;23.29;48.95
4346;BME280;2186;49.866;7.986;2023-09-19T13:35:02;100025.00;;;23.05;50.53
4346;BME280;2186;49.866;7.986;2023-09-19T13:37:29;100015.50;;;23.31;50.37
4346;BME280;2186;49.866;7.986;2023-09-19T13:39:56;100017.03;;;23.45;49.58
4346;BME280;2186;49.866;7.986;2023-09-19T13:42:24;100026.44;;;23.09;49.78
4346;BME280;2186;49.866;7.986;2023-09-19T13:44:51;100019.31;;;23.08;49.91
4346;BME280;2186;49.866;7.986;2023-09-19T13:47:17;100021.78;;;23.00;50.55
4346;BME280;2186;49.866;7.986;2023-09-19T13:49:50;100014.97;;;23.17;49.37
4346;BME280;2186;49.866;7.986;2023-09-19T13:52:20;100020.59;;;22.82;50.29
4346;BME280;2186;49.866;7.986;2023-09-19T13:54:46;100017.91;;;22.93;50.92
4346;BME280;2186;49.866;7.986;2023-09-19T13:57:13;100013.09;;;22.85;51.38
4346;BME280;2186;49.866;7.986;2023-09-19T13:59:40;100006.31;;;22.80;50.11
4346;BME280;2186;49.866;7.986;2023-09-19T14:02:07;100007.00;;;23.04;50.51
4346;BME280;2186;49.866;7.986;2023-09-19T14:04:33;99998.44;;;22.88;51.44
4346;BME280;2186;49.866;7.986;2023-09-19T14:07:03;99998.91;;;22.93;51.65
4346;BME280;2186;49.866;7.986;2023-09-19T14:09:29;99998.75;;;23.05;51.15
4346;BME280;2186;49.866;7.986;2023-09-19T14:11:56;99987.34;;;22.91;50.91
4346;BME280;2186;49.866;7.986;2023-09-19T14:14:23;99994.91;;;23.08;51.00
4346;BME280;2186;49.866;7.986;2023-09-19T14:16:49;99992.91;;;23.10;50.54
4346;BME280;2186;49.866;7.986;2023-09-19T14:19:17;99984.47;;;23.03;51.52
4346;BME280;2186;49.866;7.986;2023-09-19T14:21:44;99981.53;;;23.16;51.39